General Aviation Weather

Text Reports

Enter one or more of the following location identifiers separated by a space:

Zip Code, Four-Character ICAO or Three-Character IATA airport codes.

METAR - Aviation Routine Weather Report
KUUU - Newport, Rhode Island
Updated at 3:53 AM GMT on July 01, 2015 (11:53 PM EDT):
METAR KUUU 010353Z AUTO 13007KT 10SM CLR 19/18 A2996 RMK AO2 SLP143 T01890178
TAF - Terminal Area Forecast
KUUU - Newport, Rhode Island
Updated at 3:53 AM GMT on July 01, 2015 (11:53 PM EDT):
No TAF is currently available for this location.
Decoded:
No decoded TAF is available.
PIREP - Pilot Weather Report
KUUU - Newport, Rhode Island
Updated at 3:53 AM GMT on July 01, 2015 (11:53 PM EDT):
No PIREP is currently available for this location.
AIRMET - Airmens Meteorological Information
KUUU - Newport, Rhode Island
Updated at 3:53 AM GMT on July 01, 2015 (11:53 PM EDT):
No AIRMET is currently available for this location.
SIGMET - Significant Meteorological Information
KUUU - Newport, Rhode Island
Updated at 3:53 AM GMT on July 01, 2015 (11:53 PM EDT):
No SIGMET is currently available for this location.
NOTAM - Notice to Airmen
KUUU - Newport, Rhode Island
Updated at 3:53 AM GMT on July 01, 2015 (11:53 PM EDT):
No NOTAM is currently available for this location.
Forecast Area
KUUU - Newport, Rhode Island
Updated at 3:53 AM GMT on July 01, 2015 (11:53 PM EDT):
No NOTAM is currently available for this location.
Aviation Weather Maps